Wheeling Ohio County Airport
KHLG : now visible

Airfield :











YOU CAN JOIN US ON...

 
LOGIN :

Register | Disclaimer

   EN    FR    IT 

 









Legend :    VFR   Marginal VFR   IFR   Intensive IFR   Very Intensive IFR
Visi :
Ceiling :
>= 8 km
>= 3000ft
5 to 8 km
1000 to 3000 ft
1500m to 5 km
500 to 1000 ft
800 to 1500m
200 to 500 ft
< 800m
< 200 ft
Symbols :   Thunderstorms  Fog  Heavy snow  Heavy precipitations  Wind > 20 kt







- Airport Elevation : 1195 ft


KHLG - Wheeling Ohio County

CURRENT METAR :
  • 211553Z 25006KT 10SM OVC025 11/05 A3006 RMK AO2 SLP185 T01060050

EXPIRED METARs :
  • 211453Z VRB05KT 10SM OVC019 09/05 A3005 RMK AO2 SLP183 T00890050 51024
  • 211428Z 29005KT 10SM OVC016 08/05 A3004 RMK AO2 T00830050
  • 211411Z 31008KT 10SM BKN014 OVC020 08/05 A3004 RMK AO2 T00830050
  • 211353Z 26009KT 10SM BKN016 OVC022 09/05 A3003 RMK AO2 SLP174 T00890050

TAF KHLG
Valid from the 21 at 15:00 until the 22 at 12:00 UTC


211448Z 2115/2212 29005KT P6SM OVC015
FM212100 27007KT P6SM BKN025
KZOB FIR / North America



MET'MAP, your aeronautical weather chart ! - Copyright ORBIFLY December 2007 - Disclaimer

ORBIFLY MET'MAP TEAM :

Programming & Development : Alexandra Zaïnal
Concept & Development : Baudouin d'Aumeries
Co-Development & Prog : Marc-Olivier Méhu
Technical & hardware support : Manuel Goepfert

Contact : metmap@orbifly.com




SOURCES & CREDITS :

   NOAA       Earth
Advisory